createdAt,value
2023-05-05T00:01:02.228Z,52.80
2023-05-05T00:03:29.986Z,52.70
2023-05-05T00:05:57.972Z,52.50
2023-05-05T00:08:25.682Z,52.40
2023-05-05T00:10:53.832Z,52.50
2023-05-05T00:13:22.020Z,52.40
2023-05-05T00:15:52.431Z,52.30
2023-05-05T00:18:20.999Z,52.20
2023-05-05T00:20:49.029Z,52.00
2023-05-05T00:23:17.481Z,51.90
2023-05-05T00:25:45.007Z,52.10
2023-05-05T00:28:14.001Z,52.00
2023-05-05T00:30:41.783Z,52.00
2023-05-05T00:33:11.045Z,52.00
2023-05-05T00:35:38.649Z,52.00
2023-05-05T00:38:06.937Z,52.10
2023-05-05T00:40:34.449Z,52.00
2023-05-05T00:43:02.616Z,52.00
2023-05-05T00:45:30.756Z,52.30
2023-05-05T00:48:00.608Z,52.30
2023-05-05T00:50:30.618Z,52.40
2023-05-05T00:53:02.944Z,52.50
2023-05-05T00:55:31.746Z,52.70
2023-05-05T00:58:01.084Z,52.50
2023-05-05T01:00:29.932Z,52.60
2023-05-05T01:02:57.829Z,52.70
2023-05-05T01:05:27.541Z,52.80
2023-05-05T01:08:05.599Z,52.70
2023-05-05T01:10:51.007Z,52.90
2023-05-05T01:13:55.211Z,53.00
2023-05-05T01:16:31.027Z,53.30
2023-05-05T01:19:45.711Z,53.50
2023-05-05T01:22:18.283Z,54.50
2023-05-05T01:25:33.671Z,54.20
2023-05-05T01:28:36.110Z,55.20
2023-05-05T01:31:57.642Z,55.20
2023-05-05T01:34:32.093Z,55.40
2023-05-05T01:37:11.448Z,55.20
2023-05-05T01:39:42.705Z,55.20
2023-05-05T01:42:14.982Z,55.00
2023-05-05T01:44:44.720Z,55.00
2023-05-05T01:47:16.631Z,54.90
2023-05-05T01:49:47.367Z,54.70
2023-05-05T01:52:16.238Z,54.50
2023-05-05T01:54:46.649Z,54.40
2023-05-05T01:57:15.421Z,54.40
2023-05-05T01:59:43.031Z,54.20
2023-05-05T02:02:12.922Z,54.40
2023-05-05T02:04:43.564Z,54.20
2023-05-05T02:07:13.589Z,54.30
2023-05-05T02:09:43.980Z,54.30
2023-05-05T02:12:12.401Z,54.50
2023-05-05T02:14:42.807Z,54.60
2023-05-05T02:17:11.498Z,54.80
2023-05-05T02:19:42.940Z,54.60
2023-05-05T02:22:12.232Z,54.90
2023-05-05T02:24:39.780Z,55.00
2023-05-05T02:27:08.716Z,55.50
2023-05-05T02:29:46.805Z,55.50
2023-05-05T02:32:42.731Z,55.60
2023-05-05T02:35:29.810Z,55.80
2023-05-05T02:38:05.551Z,56.30
2023-05-05T02:40:41.940Z,56.00
2023-05-05T02:43:16.679Z,56.00
2023-05-05T02:45:44.396Z,56.00
2023-05-05T02:48:13.058Z,56.10
2023-05-05T02:50:40.764Z,56.00
2023-05-05T02:53:26.158Z,56.50
2023-05-05T02:56:23.369Z,56.50
2023-05-05T02:59:07.652Z,57.30
2023-05-05T03:02:02.433Z,57.10
2023-05-05T03:04:46.969Z,57.30
2023-05-05T03:07:27.526Z,58.20
2023-05-05T03:10:14.847Z,58.40
2023-05-05T03:12:53.367Z,60.00
2023-05-05T03:15:32.150Z,59.00
2023-05-05T03:18:03.980Z,59.20
2023-05-05T03:20:31.995Z,59.20
2023-05-05T03:23:05.103Z,60.20
2023-05-05T03:25:50.161Z,61.20
2023-05-05T03:28:30.916Z,61.30
2023-05-05T03:31:02.391Z,59.90
2023-05-05T03:33:32.510Z,60.00
2023-05-05T03:36:01.423Z,60.00
2023-05-05T03:38:29.140Z,60.20
2023-05-05T03:40:56.692Z,60.70
2023-05-05T03:43:26.914Z,61.70
2023-05-05T03:45:54.521Z,61.10
2023-05-05T03:48:23.301Z,61.00
2023-05-05T03:50:52.917Z,61.70
2023-05-05T03:53:22.320Z,62.60
2023-05-05T03:55:50.148Z,62.00
2023-05-05T03:58:17.825Z,61.80
2023-05-05T04:00:45.422Z,62.00
2023-05-05T04:03:14.457Z,62.10
2023-05-05T04:05:43.297Z,62.00
2023-05-05T04:08:10.908Z,61.90
2023-05-05T04:10:38.471Z,62.00
2023-05-05T04:13:06.200Z,62.00
2023-05-05T04:15:34.287Z,62.90
2023-05-05T04:18:02.423Z,62.20
2023-05-05T04:20:30.169Z,62.70
2023-05-05T04:22:58.316Z,62.10
2023-05-05T04:25:25.910Z,62.20
2023-05-05T04:27:53.656Z,62.30
2023-05-05T04:30:21.235Z,62.40
2023-05-05T04:32:48.918Z,62.60
2023-05-05T04:35:17.014Z,62.20
2023-05-05T04:37:44.939Z,63.20
2023-05-05T04:40:13.075Z,62.50
2023-05-05T04:42:41.572Z,62.20
2023-05-05T04:45:09.766Z,62.80
2023-05-05T04:47:41.420Z,63.10
2023-05-05T04:50:11.238Z,63.00
2023-05-05T04:52:40.128Z,62.50
2023-05-05T04:55:10.557Z,62.50
2023-05-05T04:57:38.097Z,62.70
2023-05-05T05:00:07.600Z,62.90
2023-05-05T05:02:37.484Z,62.50
2023-05-05T05:05:05.503Z,62.70
2023-05-05T05:07:33.133Z,62.60
2023-05-05T05:10:00.724Z,62.60
2023-05-05T05:12:28.338Z,63.20
2023-05-05T05:14:55.834Z,63.10
2023-05-05T05:17:24.038Z,63.00
2023-05-05T05:19:51.745Z,63.10
2023-05-05T05:22:19.247Z,63.10
2023-05-05T05:24:46.825Z,63.00
2023-05-05T05:27:14.702Z,63.00
2023-05-05T05:29:45.496Z,63.10
2023-05-05T05:32:13.068Z,63.40
2023-05-05T05:34:40.692Z,63.50
2023-05-05T05:37:09.881Z,63.70
2023-05-05T05:39:39.424Z,63.00
2023-05-05T05:42:08.783Z,62.90
2023-05-05T05:44:36.553Z,63.80
2023-05-05T05:47:04.244Z,63.30
2023-05-05T05:49:31.783Z,63.40
2023-05-05T05:51:59.366Z,63.20
2023-05-05T05:54:26.980Z,63.10
2023-05-05T05:56:54.557Z,64.10
2023-05-05T05:59:22.180Z,64.40
2023-05-05T06:01:49.725Z,65.80
2023-05-05T06:04:17.528Z,66.00
2023-05-05T06:06:45.120Z,65.50
2023-05-05T06:09:12.857Z,67.00
2023-05-05T06:11:40.459Z,65.90
2023-05-05T06:14:08.291Z,65.80
2023-05-05T06:16:35.797Z,65.40
2023-05-05T06:19:09.572Z,64.90
2023-05-05T06:21:37.706Z,64.90
2023-05-05T06:24:05.577Z,64.00
2023-05-05T06:26:34.170Z,63.60
2023-05-05T06:29:01.897Z,63.20
2023-05-05T06:31:29.430Z,63.70
2023-05-05T06:33:56.987Z,63.10
2023-05-05T06:36:24.578Z,63.80
2023-05-05T06:38:52.117Z,63.60
2023-05-05T06:41:19.697Z,63.70
2023-05-05T06:43:47.195Z,63.50
2023-05-05T06:46:15.353Z,63.20
2023-05-05T06:48:42.896Z,63.30
2023-05-05T06:51:10.406Z,63.00
2023-05-05T06:53:37.890Z,63.10
2023-05-05T06:56:05.926Z,63.10
2023-05-05T06:58:33.450Z,63.10
2023-05-05T07:01:01.054Z,62.90
2023-05-05T07:03:28.672Z,62.50
2023-05-05T07:05:56.433Z,62.30
2023-05-05T07:08:24.877Z,62.70
2023-05-05T07:10:52.387Z,62.30
2023-05-05T07:13:20.018Z,62.50
2023-05-05T07:15:47.621Z,62.10
2023-05-05T07:18:16.498Z,62.80
2023-05-05T07:20:44.660Z,61.90
2023-05-05T07:23:12.764Z,62.00
2023-05-05T07:25:40.342Z,61.20
2023-05-05T07:28:07.896Z,61.20
2023-05-05T07:30:35.439Z,61.10
2023-05-05T07:33:03.549Z,61.20
2023-05-05T07:35:31.106Z,61.30
2023-05-05T07:37:58.599Z,61.30
2023-05-05T07:40:26.252Z,61.30
2023-05-05T07:42:53.911Z,61.70
2023-05-05T07:45:21.610Z,61.70
2023-05-05T07:47:49.212Z,61.70
2023-05-05T07:50:17.037Z,61.10
2023-05-05T07:52:50.007Z,61.10
2023-05-05T07:55:23.804Z,61.00
2023-05-05T07:57:51.355Z,61.50
2023-05-05T08:00:19.473Z,61.20
2023-05-05T08:02:47.875Z,61.20
2023-05-05T08:05:16.409Z,60.80
2023-05-05T08:07:43.995Z,60.40
2023-05-05T08:10:12.608Z,59.90
2023-05-05T08:12:40.643Z,59.60
2023-05-05T08:15:08.964Z,60.00
2023-05-05T08:17:51.521Z,59.50
2023-05-05T08:20:21.205Z,59.70
2023-05-05T08:22:49.505Z,59.50
2023-05-05T08:25:17.017Z,59.40
2023-05-05T08:27:45.532Z,60.00
2023-05-05T08:30:13.443Z,59.90
2023-05-05T08:32:41.231Z,59.50
2023-05-05T08:35:09.454Z,59.80
2023-05-05T08:37:37.242Z,59.50
2023-05-05T08:40:06.157Z,59.10
2023-05-05T08:42:38.732Z,59.30
2023-05-05T08:45:10.899Z,59.50
2023-05-05T08:47:39.559Z,58.90
2023-05-05T08:50:10.999Z,58.40
2023-05-05T08:52:43.565Z,58.20
2023-05-05T08:55:24.024Z,58.70
2023-05-05T08:57:58.207Z,58.40
2023-05-05T09:00:27.181Z,58.20
2023-05-05T09:02:58.198Z,58.00
2023-05-05T09:05:27.132Z,57.50
2023-05-05T09:07:54.820Z,57.60
2023-05-05T09:10:22.566Z,57.60
2023-05-05T09:12:51.584Z,57.20
2023-05-05T09:15:19.277Z,56.90
2023-05-05T09:17:47.167Z,56.80
2023-05-05T09:20:15.487Z,56.30
2023-05-05T09:22:46.073Z,56.40
2023-05-05T09:25:16.175Z,57.70
2023-05-05T09:27:49.116Z,57.10
2023-05-05T09:30:24.865Z,56.80
2023-05-05T09:32:54.802Z,56.50
2023-05-05T09:35:23.352Z,56.30
2023-05-05T09:37:50.960Z,56.50
2023-05-05T09:40:20.226Z,56.40
2023-05-05T09:42:48.266Z,56.80
2023-05-05T09:45:18.540Z,57.40
2023-05-05T09:47:47.336Z,58.30
2023-05-05T09:50:18.566Z,58.30
2023-05-05T09:53:03.307Z,58.30
2023-05-05T09:55:31.383Z,59.80
2023-05-05T09:58:23.399Z,59.30
2023-05-05T10:00:51.500Z,59.40
2023-05-05T10:03:19.525Z,59.20
2023-05-05T10:06:01.029Z,59.50
2023-05-05T10:08:31.381Z,60.00
2023-05-05T10:11:07.239Z,60.00
2023-05-05T10:13:41.832Z,60.30
2023-05-05T10:16:11.215Z,60.50
2023-05-05T10:18:46.249Z,60.70
2023-05-05T10:21:18.067Z,61.10
2023-05-05T10:23:57.236Z,61.10
2023-05-05T10:26:27.545Z,61.40
2023-05-05T10:28:56.571Z,61.20
2023-05-05T10:31:43.423Z,61.30
2023-05-05T10:34:24.083Z,61.80
2023-05-05T10:36:52.001Z,61.90
2023-05-05T10:39:21.036Z,61.40
2023-05-05T10:41:50.033Z,61.20
2023-05-05T10:44:18.055Z,61.00
2023-05-05T10:46:46.835Z,61.30
2023-05-05T10:49:32.860Z,61.30
2023-05-05T10:52:12.063Z,61.60
2023-05-05T10:54:50.523Z,61.10
2023-05-05T10:57:22.798Z,60.90
2023-05-05T10:59:50.351Z,61.00
2023-05-05T11:02:29.609Z,60.50
2023-05-05T11:05:06.932Z,60.60
2023-05-05T11:07:34.585Z,60.40
2023-05-05T11:10:04.933Z,60.00
2023-05-05T11:12:53.707Z,59.80
2023-05-05T11:15:37.286Z,59.50
2023-05-05T11:18:07.898Z,59.10
2023-05-05T11:20:40.049Z,57.80
2023-05-05T11:23:07.524Z,57.30
2023-05-05T11:25:35.464Z,56.80
2023-05-05T11:28:31.463Z,57.00
2023-05-05T11:31:01.757Z,56.70
2023-05-05T11:33:37.674Z,56.60
2023-05-05T11:36:13.850Z,55.80
2023-05-05T11:39:24.075Z,53.70
2023-05-05T11:42:26.233Z,54.40
2023-05-05T11:44:54.605Z,53.70
2023-05-05T11:47:21.994Z,54.10
2023-05-05T11:49:50.361Z,54.30
2023-05-05T11:52:17.899Z,54.00
2023-05-05T11:54:48.603Z,53.40
2023-05-05T11:57:27.849Z,53.50
2023-05-05T12:00:08.132Z,53.50
2023-05-05T12:02:36.635Z,51.20
2023-05-05T12:05:04.883Z,52.90
2023-05-05T12:07:33.623Z,53.20
2023-05-05T12:10:01.413Z,52.20
2023-05-05T12:12:40.419Z,51.40
2023-05-05T12:15:09.745Z,51.70
2023-05-05T12:17:44.903Z,52.20
2023-05-05T12:20:13.795Z,52.20
2023-05-05T12:22:41.470Z,51.60
2023-05-05T12:25:10.652Z,51.60
2023-05-05T12:27:38.558Z,51.60
2023-05-05T12:30:18.331Z,51.60
2023-05-05T12:32:46.290Z,50.20
2023-05-05T12:35:14.486Z,50.50
2023-05-05T12:37:43.228Z,50.30
2023-05-05T12:40:48.869Z,49.70
2023-05-05T12:43:27.880Z,49.00
2023-05-05T12:46:09.020Z,48.70
2023-05-05T12:48:39.305Z,49.20
2023-05-05T12:51:16.885Z,49.80
2023-05-05T12:53:49.746Z,47.70
2023-05-05T12:56:44.156Z,47.70
2023-05-05T12:59:29.236Z,46.90
2023-05-05T13:02:02.505Z,48.10
2023-05-05T13:05:01.454Z,48.40
2023-05-05T13:07:29.017Z,46.70
2023-05-05T13:10:12.668Z,48.00
2023-05-05T13:12:40.260Z,46.80
2023-05-05T13:15:09.053Z,47.20
2023-05-05T13:17:36.774Z,46.80
2023-05-05T13:20:05.756Z,46.20
2023-05-05T13:22:33.262Z,46.10
2023-05-05T13:25:00.804Z,45.90
2023-05-05T13:27:28.402Z,46.10
2023-05-05T13:29:55.999Z,46.40
2023-05-05T13:32:23.639Z,46.50
2023-05-05T13:34:51.355Z,46.50
2023-05-05T13:37:18.946Z,47.00
2023-05-05T13:39:46.458Z,47.00
2023-05-05T13:42:13.931Z,47.20
2023-05-05T13:44:41.466Z,47.20
2023-05-05T13:47:09.150Z,47.30
2023-05-05T13:49:36.920Z,47.20
2023-05-05T13:52:04.586Z,47.60
2023-05-05T13:54:32.231Z,47.60
2023-05-05T13:56:59.971Z,48.00
2023-05-05T13:59:28.161Z,48.40
2023-05-05T14:01:55.886Z,48.50
2023-05-05T14:04:23.436Z,48.90
2023-05-05T14:06:50.976Z,49.70
2023-05-05T14:09:18.548Z,50.30
2023-05-05T14:11:46.034Z,50.80
2023-05-05T14:14:13.582Z,51.00
2023-05-05T14:16:41.152Z,51.10
2023-05-05T14:19:08.708Z,50.80
2023-05-05T14:21:36.417Z,51.00
2023-05-05T14:24:04.121Z,50.30
2023-05-05T14:26:31.690Z,48.90
2023-05-05T14:28:59.246Z,47.00
2023-05-05T14:31:26.822Z,47.10
2023-05-05T14:33:54.457Z,46.20
2023-05-05T14:36:21.929Z,45.70
2023-05-05T14:38:49.637Z,46.80
2023-05-05T14:41:17.200Z,47.00
2023-05-05T14:43:44.777Z,46.90
2023-05-05T14:46:12.386Z,46.80
2023-05-05T14:48:40.079Z,46.90
2023-05-05T14:51:07.801Z,46.70
2023-05-05T14:53:35.799Z,47.80
2023-05-05T14:56:03.402Z,48.80
2023-05-05T14:58:30.984Z,48.90
2023-05-05T15:00:58.904Z,49.10
2023-05-05T15:03:27.136Z,49.10
2023-05-05T15:05:54.759Z,49.50
2023-05-05T15:08:22.481Z,49.70
2023-05-05T15:10:50.010Z,49.70
2023-05-05T15:13:18.392Z,49.30
2023-05-05T15:15:45.995Z,49.40
2023-05-05T15:18:13.524Z,50.00
2023-05-05T15:20:41.021Z,50.10
2023-05-05T15:23:08.691Z,49.70
2023-05-05T15:25:36.510Z,49.90
2023-05-05T15:28:04.180Z,50.00
2023-05-05T15:30:31.766Z,50.10
2023-05-05T15:32:59.420Z,50.40
2023-05-05T15:35:27.022Z,50.70
2023-05-05T15:37:54.753Z,50.80
2023-05-05T15:40:22.569Z,51.70
2023-05-05T15:42:50.107Z,52.00
2023-05-05T15:45:17.849Z,52.30
2023-05-05T15:47:46.108Z,52.40
2023-05-05T15:50:14.201Z,51.40
2023-05-05T15:52:41.906Z,52.80
2023-05-05T15:55:10.832Z,54.80
2023-05-05T15:57:41.330Z,56.60
2023-05-05T16:00:09.741Z,57.50
2023-05-05T16:02:38.146Z,58.10
2023-05-05T16:05:06.658Z,58.20
2023-05-05T16:07:34.385Z,58.50
2023-05-05T16:10:02.073Z,59.50
2023-05-05T16:12:29.729Z,61.00
2023-05-05T16:14:57.318Z,63.50
2023-05-05T16:17:24.867Z,64.30
2023-05-05T16:19:52.365Z,65.70
2023-05-05T16:22:20.940Z,68.60
2023-05-05T16:24:48.457Z,70.00
2023-05-05T16:27:16.431Z,73.10
2023-05-05T16:29:43.937Z,78.50
2023-05-05T16:32:12.270Z,82.40
2023-05-05T16:34:39.790Z,97.90
2023-05-05T16:37:07.318Z,99.90
2023-05-05T16:39:40.389Z,99.90
2023-05-05T16:42:08.079Z,99.90
2023-05-05T16:44:35.630Z,99.90
2023-05-05T16:47:03.196Z,99.90
2023-05-05T16:49:30.692Z,99.90
2023-05-05T16:51:58.255Z,99.90
2023-05-05T16:54:25.770Z,99.90
2023-05-05T16:56:53.719Z,99.90
2023-05-05T16:59:21.208Z,99.90
2023-05-05T17:01:48.737Z,99.90
2023-05-05T17:04:16.456Z,99.90
2023-05-05T17:06:44.001Z,99.90
2023-05-05T17:09:11.517Z,99.90
2023-05-05T17:11:39.067Z,99.90
2023-05-05T17:14:06.585Z,99.90
2023-05-05T17:16:34.348Z,99.90
2023-05-05T17:19:01.908Z,99.90
2023-05-05T17:21:29.419Z,99.90
2023-05-05T17:23:57.299Z,99.90
2023-05-05T17:26:24.979Z,99.90
2023-05-05T17:28:52.460Z,99.90
2023-05-05T17:31:19.978Z,99.90
2023-05-05T17:33:47.550Z,99.90
2023-05-05T17:36:15.089Z,99.90
2023-05-05T17:38:42.618Z,99.90
2023-05-05T17:41:10.778Z,99.90
2023-05-05T17:43:38.389Z,99.90
2023-05-05T17:46:05.942Z,99.90
2023-05-05T17:48:33.511Z,99.90
2023-05-05T17:51:01.260Z,99.90
2023-05-05T17:53:28.731Z,99.90
2023-05-05T17:55:56.292Z,99.90
2023-05-05T17:58:23.911Z,99.90
2023-05-05T18:00:51.395Z,99.90
2023-05-05T18:03:19.117Z,99.90
2023-05-05T18:05:46.818Z,99.90
2023-05-05T18:08:14.344Z,99.90
2023-05-05T18:10:42.359Z,99.90
2023-05-05T18:13:09.896Z,99.90
2023-05-05T18:15:37.432Z,99.90
2023-05-05T18:18:05.117Z,99.90
2023-05-05T18:20:32.644Z,99.90
2023-05-05T18:23:00.153Z,99.90
2023-05-05T18:25:27.639Z,99.90
2023-05-05T18:27:55.201Z,99.90
2023-05-05T18:30:22.755Z,99.90
2023-05-05T18:32:50.374Z,99.90
2023-05-05T18:35:18.047Z,99.90
2023-05-05T18:37:45.566Z,99.90
2023-05-05T18:40:13.423Z,99.90
2023-05-05T18:42:41.532Z,99.90
2023-05-05T18:45:10.522Z,99.90
2023-05-05T18:47:39.284Z,99.90
2023-05-05T18:50:08.306Z,99.90
2023-05-05T18:52:35.874Z,99.90
2023-05-05T18:55:03.800Z,99.90
2023-05-05T18:57:31.304Z,99.90
2023-05-05T18:59:58.939Z,99.90
2023-05-05T19:02:26.927Z,99.90
2023-05-05T19:04:54.480Z,99.90
2023-05-05T19:07:33.960Z,99.90
2023-05-05T19:10:04.686Z,99.90
2023-05-05T19:12:32.260Z,99.90
2023-05-05T19:14:59.785Z,99.90
2023-05-05T19:17:27.606Z,99.90
2023-05-05T19:19:55.556Z,99.90
2023-05-05T19:22:23.865Z,99.90
2023-05-05T19:24:51.413Z,99.90
2023-05-05T19:27:19.056Z,99.90
2023-05-05T19:29:51.778Z,99.90
2023-05-05T19:32:20.897Z,99.90
2023-05-05T19:34:48.784Z,99.90
2023-05-05T19:37:16.318Z,99.90
2023-05-05T19:39:45.523Z,99.90
2023-05-05T19:42:13.126Z,99.90
2023-05-05T19:44:40.687Z,99.90
2023-05-05T19:47:09.017Z,99.90
2023-05-05T19:49:37.841Z,99.90
2023-05-05T19:52:05.537Z,99.90
2023-05-05T19:54:33.018Z,99.90
2023-05-05T19:57:00.713Z,99.90
2023-05-05T19:59:29.170Z,99.90
2023-05-05T20:01:56.804Z,99.90
2023-05-05T20:04:24.354Z,99.90
2023-05-05T20:06:51.930Z,99.90
2023-05-05T20:09:19.672Z,99.90
2023-05-05T20:11:47.186Z,99.90
2023-05-05T20:14:14.725Z,99.90
2023-05-05T20:16:42.220Z,99.90
2023-05-05T20:19:09.686Z,99.90
2023-05-05T20:21:37.209Z,99.90
2023-05-05T20:24:05.981Z,99.90
2023-05-05T20:26:33.739Z,99.90
2023-05-05T20:29:02.054Z,99.90
2023-05-05T20:31:29.542Z,99.90
2023-05-05T20:33:57.071Z,99.90
2023-05-05T20:36:26.543Z,99.90
2023-05-05T20:38:54.292Z,99.90
2023-05-05T20:41:21.986Z,99.90
2023-05-05T20:43:49.584Z,99.90
2023-05-05T20:46:17.174Z,99.90
2023-05-05T20:48:44.750Z,99.90
2023-05-05T20:51:12.328Z,99.90
2023-05-05T20:53:39.961Z,99.90
2023-05-05T20:56:08.846Z,99.90
2023-05-05T20:58:36.654Z,99.90
2023-05-05T21:01:04.180Z,99.90
2023-05-05T21:03:31.771Z,99.90
2023-05-05T21:05:59.335Z,99.90
2023-05-05T21:08:26.997Z,99.90
2023-05-05T21:10:54.525Z,99.90
2023-05-05T21:13:22.993Z,99.90
2023-05-05T21:15:50.683Z,99.90
2023-05-05T21:18:18.207Z,99.90
2023-05-05T21:20:45.748Z,99.90
2023-05-05T21:23:13.479Z,99.90
2023-05-05T21:25:41.044Z,99.90
2023-05-05T21:28:08.540Z,99.90
2023-05-05T21:30:36.081Z,99.90
2023-05-05T21:33:03.691Z,99.90
2023-05-05T21:35:31.281Z,99.90
2023-05-05T21:37:58.924Z,99.90
2023-05-05T21:40:26.773Z,99.90
2023-05-05T21:42:54.334Z,99.90
2023-05-05T21:45:21.888Z,99.90
2023-05-05T21:47:49.453Z,99.90
2023-05-05T21:50:16.994Z,99.90
2023-05-05T21:52:44.488Z,99.90
2023-05-05T21:55:12.053Z,99.90
2023-05-05T21:57:39.597Z,99.90
2023-05-05T22:00:08.948Z,99.90
2023-05-05T22:02:44.762Z,99.90
2023-05-05T22:05:12.423Z,99.90
2023-05-05T22:07:40.654Z,99.90
2023-05-05T22:10:09.106Z,99.90
2023-05-05T22:12:36.822Z,99.90
2023-05-05T22:15:04.948Z,99.90
2023-05-05T22:17:32.515Z,99.90
2023-05-05T22:20:00.067Z,99.90
2023-05-05T22:22:27.628Z,99.90
2023-05-05T22:24:55.251Z,99.90
2023-05-05T22:27:22.766Z,99.90
2023-05-05T22:29:50.776Z,99.90
2023-05-05T22:32:18.260Z,99.90
2023-05-05T22:34:45.774Z,99.90
2023-05-05T22:37:14.181Z,99.90
2023-05-05T22:39:41.725Z,99.90
2023-05-05T22:42:09.263Z,99.90
2023-05-05T22:44:36.753Z,99.90
2023-05-05T22:47:04.486Z,99.90
2023-05-05T22:49:32.055Z,99.90
2023-05-05T22:51:59.663Z,99.90
2023-05-05T22:54:27.170Z,99.90
2023-05-05T22:56:54.985Z,99.90
2023-05-05T22:59:22.541Z,99.90
2023-05-05T23:01:50.212Z,99.90
2023-05-05T23:04:17.775Z,99.90
2023-05-05T23:06:46.154Z,99.90
2023-05-05T23:09:13.791Z,99.90
2023-05-05T23:11:41.354Z,99.90
2023-05-05T23:14:08.811Z,99.90
2023-05-05T23:16:36.354Z,99.90
2023-05-05T23:19:03.877Z,99.90
2023-05-05T23:21:33.995Z,99.90
2023-05-05T23:24:03.982Z,99.90
2023-05-05T23:26:31.662Z,99.90
2023-05-05T23:28:59.197Z,99.90
2023-05-05T23:31:26.718Z,99.90
2023-05-05T23:33:54.274Z,99.90
2023-05-05T23:36:21.760Z,99.90
2023-05-05T23:38:49.330Z,99.90
2023-05-05T23:41:18.262Z,99.90
2023-05-05T23:43:46.757Z,99.90
2023-05-05T23:46:14.930Z,99.90
2023-05-05T23:48:42.590Z,99.90
2023-05-05T23:51:10.148Z,99.90
2023-05-05T23:53:37.671Z,99.90
2023-05-05T23:56:05.717Z,99.90
2023-05-05T23:58:33.276Z,99.90
